sensor_id;sensor_type;location;lat;lon;timestamp;P1;durP1;ratioP1;P2;durP2;ratioP2
59974;SDS011;62136;-35.664;-63.766;2023-04-15T00:00:11;4.45;;;1.10;;
59974;SDS011;62136;-35.664;-63.766;2023-04-15T00:02:40;3.38;;;1.40;;
59974;SDS011;62136;-35.664;-63.766;2023-04-15T00:05:07;3.38;;;1.23;;
59974;SDS011;62136;-35.664;-63.766;2023-04-15T00:07:34;3.63;;;1.42;;
59974;SDS011;62136;-35.664;-63.766;2023-04-15T00:10:02;2.17;;;1.20;;
59974;SDS011;62136;-35.664;-63.766;2023-04-15T00:12:29;3.97;;;1.17;;
59974;SDS011;62136;-35.664;-63.766;2023-04-15T00:14:56;2.00;;;1.10;;
59974;SDS011;62136;-35.664;-63.766;2023-04-15T00:17:23;4.25;;;1.30;;
59974;SDS011;62136;-35.664;-63.766;2023-04-15T00:19:51;2.53;;;1.15;;
59974;SDS011;62136;-35.664;-63.766;2023-04-15T00:22:18;1.98;;;1.10;;
59974;SDS011;62136;-35.664;-63.766;2023-04-15T00:24:46;1.02;;;0.90;;
59974;SDS011;62136;-35.664;-63.766;2023-04-15T00:27:13;2.00;;;1.08;;
59974;SDS011;62136;-35.664;-63.766;2023-04-15T00:29:40;2.80;;;1.20;;
59974;SDS011;62136;-35.664;-63.766;2023-04-15T00:32:07;2.33;;;1.05;;
59974;SDS011;62136;-35.664;-63.766;2023-04-15T00:34:35;2.40;;;1.20;;
59974;SDS011;62136;-35.664;-63.766;2023-04-15T00:37:02;3.15;;;1.10;;
59974;SDS011;62136;-35.664;-63.766;2023-04-15T00:39:29;2.15;;;1.15;;
59974;SDS011;62136;-35.664;-63.766;2023-04-15T00:41:56;2.28;;;1.27;;
59974;SDS011;62136;-35.664;-63.766;2023-04-15T00:44:23;1.92;;;1.10;;
59974;SDS011;62136;-35.664;-63.766;2023-04-15T00:46:51;3.70;;;1.45;;
59974;SDS011;62136;-35.664;-63.766;2023-04-15T00:49:18;1.92;;;1.15;;
59974;SDS011;62136;-35.664;-63.766;2023-04-15T00:51:46;3.25;;;1.33;;
59974;SDS011;62136;-35.664;-63.766;2023-04-15T00:54:13;3.92;;;1.38;;
59974;SDS011;62136;-35.664;-63.766;2023-04-15T00:56:40;5.13;;;1.05;;
59974;SDS011;62136;-35.664;-63.766;2023-04-15T00:59:08;2.50;;;1.30;;
59974;SDS011;62136;-35.664;-63.766;2023-04-15T01:01:35;2.80;;;1.23;;
59974;SDS011;62136;-35.664;-63.766;2023-04-15T01:04:03;2.20;;;1.02;;
59974;SDS011;62136;-35.664;-63.766;2023-04-15T01:06:31;3.70;;;1.20;;
59974;SDS011;62136;-35.664;-63.766;2023-04-15T01:09:01;2.47;;;1.13;;
59974;SDS011;62136;-35.664;-63.766;2023-04-15T01:11:29;2.70;;;1.35;;
59974;SDS011;62136;-35.664;-63.766;2023-04-15T01:13:58;4.40;;;1.13;;
59974;SDS011;62136;-35.664;-63.766;2023-04-15T01:16:26;2.45;;;1.10;;
59974;SDS011;62136;-35.664;-63.766;2023-04-15T01:18:53;3.55;;;1.35;;
59974;SDS011;62136;-35.664;-63.766;2023-04-15T01:21:20;3.13;;;1.40;;
59974;SDS011;62136;-35.664;-63.766;2023-04-15T01:23:48;1.85;;;1.50;;
59974;SDS011;62136;-35.664;-63.766;2023-04-15T01:26:18;2.55;;;1.20;;
59974;SDS011;62136;-35.664;-63.766;2023-04-15T01:28:46;4.03;;;1.30;;
59974;SDS011;62136;-35.664;-63.766;2023-04-15T01:31:13;2.17;;;1.02;;
59974;SDS011;62136;-35.664;-63.766;2023-04-15T01:33:41;1.92;;;1.02;;
59974;SDS011;62136;-35.664;-63.766;2023-04-15T01:36:09;3.00;;;1.30;;
59974;SDS011;62136;-35.664;-63.766;2023-04-15T01:38:36;3.03;;;1.50;;
59974;SDS011;62136;-35.664;-63.766;2023-04-15T01:41:04;1.77;;;1.17;;
59974;SDS011;62136;-35.664;-63.766;2023-04-15T01:43:33;6.13;;;1.40;;
59974;SDS011;62136;-35.664;-63.766;2023-04-15T01:46:03;1.85;;;1.33;;
59974;SDS011;62136;-35.664;-63.766;2023-04-15T01:48:31;4.25;;;1.65;;
59974;SDS011;62136;-35.664;-63.766;2023-04-15T01:50:58;2.67;;;1.65;;
59974;SDS011;62136;-35.664;-63.766;2023-04-15T01:53:25;2.75;;;1.50;;
59974;SDS011;62136;-35.664;-63.766;2023-04-15T01:55:53;3.60;;;1.58;;
59974;SDS011;62136;-35.664;-63.766;2023-04-15T01:58:20;4.28;;;1.60;;
59974;SDS011;62136;-35.664;-63.766;2023-04-15T02:00:47;3.30;;;1.52;;
59974;SDS011;62136;-35.664;-63.766;2023-04-15T02:03:15;2.15;;;1.42;;
59974;SDS011;62136;-35.664;-63.766;2023-04-15T02:05:42;2.90;;;1.33;;
59974;SDS011;62136;-35.664;-63.766;2023-04-15T02:08:09;4.75;;;1.95;;
59974;SDS011;62136;-35.664;-63.766;2023-04-15T02:10:37;3.13;;;1.90;;
59974;SDS011;62136;-35.664;-63.766;2023-04-15T02:13:04;5.47;;;2.05;;
59974;SDS011;62136;-35.664;-63.766;2023-04-15T02:15:31;2.40;;;1.50;;
59974;SDS011;62136;-35.664;-63.766;2023-04-15T02:17:58;5.20;;;1.70;;
59974;SDS011;62136;-35.664;-63.766;2023-04-15T02:20:26;3.70;;;1.80;;
59974;SDS011;62136;-35.664;-63.766;2023-04-15T02:22:55;3.90;;;1.73;;
59974;SDS011;62136;-35.664;-63.766;2023-04-15T02:25:22;2.35;;;1.30;;
59974;SDS011;62136;-35.664;-63.766;2023-04-15T02:27:49;4.05;;;1.73;;
59974;SDS011;62136;-35.664;-63.766;2023-04-15T02:30:22;3.47;;;1.42;;
59974;SDS011;62136;-35.664;-63.766;2023-04-15T02:32:54;3.70;;;1.50;;
59974;SDS011;62136;-35.664;-63.766;2023-04-15T02:35:21;4.07;;;1.80;;
59974;SDS011;62136;-35.664;-63.766;2023-04-15T02:37:50;2.67;;;1.40;;
59974;SDS011;62136;-35.664;-63.766;2023-04-15T02:40:17;3.97;;;1.80;;
59974;SDS011;62136;-35.664;-63.766;2023-04-15T02:42:44;4.05;;;1.40;;
59974;SDS011;62136;-35.664;-63.766;2023-04-15T02:45:11;3.03;;;1.70;;
59974;SDS011;62136;-35.664;-63.766;2023-04-15T02:47:39;6.57;;;2.00;;
59974;SDS011;62136;-35.664;-63.766;2023-04-15T02:50:09;3.88;;;1.85;;
59974;SDS011;62136;-35.664;-63.766;2023-04-15T02:52:41;2.30;;;1.58;;
59974;SDS011;62136;-35.664;-63.766;2023-04-15T02:55:09;3.67;;;1.40;;
59974;SDS011;62136;-35.664;-63.766;2023-04-15T02:57:37;2.97;;;1.33;;
59974;SDS011;62136;-35.664;-63.766;2023-04-15T03:00:05;4.03;;;1.63;;
59974;SDS011;62136;-35.664;-63.766;2023-04-15T03:02:35;2.70;;;1.58;;
59974;SDS011;62136;-35.664;-63.766;2023-04-15T03:05:03;2.70;;;1.60;;
59974;SDS011;62136;-35.664;-63.766;2023-04-15T03:07:31;3.40;;;1.83;;
59974;SDS011;62136;-35.664;-63.766;2023-04-15T03:09:58;6.43;;;1.80;;
59974;SDS011;62136;-35.664;-63.766;2023-04-15T03:12:25;4.93;;;1.42;;
59974;SDS011;62136;-35.664;-63.766;2023-04-15T03:14:53;4.82;;;1.73;;
59974;SDS011;62136;-35.664;-63.766;2023-04-15T03:17:20;3.42;;;1.52;;
59974;SDS011;62136;-35.664;-63.766;2023-04-15T03:19:47;4.20;;;1.63;;
59974;SDS011;62136;-35.664;-63.766;2023-04-15T03:22:14;2.80;;;1.50;;
59974;SDS011;62136;-35.664;-63.766;2023-04-15T03:24:41;4.10;;;1.60;;
59974;SDS011;62136;-35.664;-63.766;2023-04-15T03:27:08;2.75;;;1.85;;
59974;SDS011;62136;-35.664;-63.766;2023-04-15T03:29:35;1.80;;;1.20;;
59974;SDS011;62136;-35.664;-63.766;2023-04-15T03:32:02;3.08;;;1.40;;
59974;SDS011;62136;-35.664;-63.766;2023-04-15T03:34:29;3.97;;;1.30;;
59974;SDS011;62136;-35.664;-63.766;2023-04-15T03:36:56;2.97;;;1.55;;
59974;SDS011;62136;-35.664;-63.766;2023-04-15T03:39:23;3.92;;;1.60;;
59974;SDS011;62136;-35.664;-63.766;2023-04-15T03:41:50;2.80;;;1.50;;
59974;SDS011;62136;-35.664;-63.766;2023-04-15T03:44:17;2.78;;;1.27;;
59974;SDS011;62136;-35.664;-63.766;2023-04-15T03:46:44;6.05;;;1.70;;
59974;SDS011;62136;-35.664;-63.766;2023-04-15T03:49:12;3.47;;;1.38;;
59974;SDS011;62136;-35.664;-63.766;2023-04-15T03:51:39;2.78;;;1.40;;
59974;SDS011;62136;-35.664;-63.766;2023-04-15T03:54:06;2.05;;;1.40;;
59974;SDS011;62136;-35.664;-63.766;2023-04-15T03:56:33;3.42;;;1.70;;
59974;SDS011;62136;-35.664;-63.766;2023-04-15T03:59:00;3.28;;;1.35;;
59974;SDS011;62136;-35.664;-63.766;2023-04-15T04:01:27;2.90;;;1.38;;
59974;SDS011;62136;-35.664;-63.766;2023-04-15T04:03:55;4.10;;;1.52;;
59974;SDS011;62136;-35.664;-63.766;2023-04-15T04:06:22;4.47;;;1.33;;
59974;SDS011;62136;-35.664;-63.766;2023-04-15T04:08:49;4.68;;;1.50;;
59974;SDS011;62136;-35.664;-63.766;2023-04-15T04:11:16;3.25;;;1.52;;
59974;SDS011;62136;-35.664;-63.766;2023-04-15T04:13:43;3.83;;;1.55;;
59974;SDS011;62136;-35.664;-63.766;2023-04-15T04:16:10;4.50;;;1.42;;
59974;SDS011;62136;-35.664;-63.766;2023-04-15T04:18:37;2.55;;;1.70;;
59974;SDS011;62136;-35.664;-63.766;2023-04-15T04:21:10;5.68;;;1.50;;
59974;SDS011;62136;-35.664;-63.766;2023-04-15T04:23:37;3.97;;;1.52;;
59974;SDS011;62136;-35.664;-63.766;2023-04-15T04:26:04;2.65;;;1.50;;
59974;SDS011;62136;-35.664;-63.766;2023-04-15T04:28:31;2.33;;;1.30;;
59974;SDS011;62136;-35.664;-63.766;2023-04-15T04:31:02;2.83;;;1.45;;
59974;SDS011;62136;-35.664;-63.766;2023-04-15T04:33:29;3.65;;;1.40;;
59974;SDS011;62136;-35.664;-63.766;2023-04-15T04:35:59;2.47;;;1.15;;
59974;SDS011;62136;-35.664;-63.766;2023-04-15T04:38:27;2.75;;;1.20;;
59974;SDS011;62136;-35.664;-63.766;2023-04-15T04:40:56;2.30;;;1.25;;
59974;SDS011;62136;-35.664;-63.766;2023-04-15T04:43:23;3.97;;;2.03;;
59974;SDS011;62136;-35.664;-63.766;2023-04-15T04:45:51;3.97;;;1.50;;
59974;SDS011;62136;-35.664;-63.766;2023-04-15T04:48:18;3.42;;;1.40;;
59974;SDS011;62136;-35.664;-63.766;2023-04-15T04:50:45;2.30;;;1.27;;
59974;SDS011;62136;-35.664;-63.766;2023-04-15T04:53:13;2.33;;;1.30;;
59974;SDS011;62136;-35.664;-63.766;2023-04-15T04:55:40;2.25;;;1.20;;
59974;SDS011;62136;-35.664;-63.766;2023-04-15T04:58:07;2.83;;;1.27;;
59974;SDS011;62136;-35.664;-63.766;2023-04-15T05:00:35;3.85;;;1.42;;
59974;SDS011;62136;-35.664;-63.766;2023-04-15T05:03:03;3.25;;;1.10;;
59974;SDS011;62136;-35.664;-63.766;2023-04-15T05:05:30;4.13;;;1.70;;
59974;SDS011;62136;-35.664;-63.766;2023-04-15T05:07:57;3.30;;;1.38;;
59974;SDS011;62136;-35.664;-63.766;2023-04-15T05:10:24;3.45;;;1.20;;
59974;SDS011;62136;-35.664;-63.766;2023-04-15T05:12:51;2.50;;;1.20;;
59974;SDS011;62136;-35.664;-63.766;2023-04-15T05:15:18;2.80;;;1.15;;
59974;SDS011;62136;-35.664;-63.766;2023-04-15T05:17:45;7.15;;;1.65;;
59974;SDS011;62136;-35.664;-63.766;2023-04-15T05:20:12;2.58;;;1.45;;
59974;SDS011;62136;-35.664;-63.766;2023-04-15T05:22:40;6.03;;;1.60;;
59974;SDS011;62136;-35.664;-63.766;2023-04-15T05:25:07;2.40;;;1.30;;
59974;SDS011;62136;-35.664;-63.766;2023-04-15T05:27:34;2.95;;;1.20;;
59974;SDS011;62136;-35.664;-63.766;2023-04-15T05:30:04;2.50;;;1.35;;
59974;SDS011;62136;-35.664;-63.766;2023-04-15T05:32:32;2.13;;;1.30;;
59974;SDS011;62136;-35.664;-63.766;2023-04-15T05:34:59;3.67;;;1.45;;
59974;SDS011;62136;-35.664;-63.766;2023-04-15T05:37:26;3.00;;;1.20;;
59974;SDS011;62136;-35.664;-63.766;2023-04-15T05:39:53;2.83;;;1.20;;
59974;SDS011;62136;-35.664;-63.766;2023-04-15T05:42:21;2.10;;;1.25;;
59974;SDS011;62136;-35.664;-63.766;2023-04-15T05:44:48;2.35;;;1.55;;
59974;SDS011;62136;-35.664;-63.766;2023-04-15T05:47:15;2.20;;;1.20;;
59974;SDS011;62136;-35.664;-63.766;2023-04-15T05:49:42;2.17;;;1.25;;
59974;SDS011;62136;-35.664;-63.766;2023-04-15T05:52:10;4.07;;;1.40;;
59974;SDS011;62136;-35.664;-63.766;2023-04-15T05:54:37;2.88;;;1.40;;
59974;SDS011;62136;-35.664;-63.766;2023-04-15T05:57:05;2.97;;;1.65;;
59974;SDS011;62136;-35.664;-63.766;2023-04-15T05:59:32;3.20;;;1.33;;
59974;SDS011;62136;-35.664;-63.766;2023-04-15T06:01:59;2.25;;;1.20;;
59974;SDS011;62136;-35.664;-63.766;2023-04-15T06:04:27;2.92;;;1.30;;
59974;SDS011;62136;-35.664;-63.766;2023-04-15T06:06:54;3.47;;;1.30;;
59974;SDS011;62136;-35.664;-63.766;2023-04-15T06:09:21;1.90;;;1.27;;
59974;SDS011;62136;-35.664;-63.766;2023-04-15T06:11:48;2.38;;;1.10;;
59974;SDS011;62136;-35.664;-63.766;2023-04-15T06:14:16;1.77;;;1.00;;
59974;SDS011;62136;-35.664;-63.766;2023-04-15T06:16:47;1.75;;;1.02;;
59974;SDS011;62136;-35.664;-63.766;2023-04-15T06:19:14;3.25;;;1.40;;
59974;SDS011;62136;-35.664;-63.766;2023-04-15T06:21:44;2.22;;;1.15;;
59974;SDS011;62136;-35.664;-63.766;2023-04-15T06:24:12;3.03;;;1.25;;
59974;SDS011;62136;-35.664;-63.766;2023-04-15T06:26:39;3.58;;;1.15;;
59974;SDS011;62136;-35.664;-63.766;2023-04-15T06:29:06;2.33;;;1.23;;
59974;SDS011;62136;-35.664;-63.766;2023-04-15T06:31:33;1.95;;;1.00;;
59974;SDS011;62136;-35.664;-63.766;2023-04-15T06:34:00;2.38;;;1.08;;
59974;SDS011;62136;-35.664;-63.766;2023-04-15T06:36:27;2.47;;;1.23;;
59974;SDS011;62136;-35.664;-63.766;2023-04-15T06:38:56;3.28;;;1.20;;
59974;SDS011;62136;-35.664;-63.766;2023-04-15T06:41:23;2.78;;;1.25;;
59974;SDS011;62136;-35.664;-63.766;2023-04-15T06:43:50;3.00;;;1.17;;
59974;SDS011;62136;-35.664;-63.766;2023-04-15T06:46:17;1.42;;;1.05;;
59974;SDS011;62136;-35.664;-63.766;2023-04-15T06:48:44;3.88;;;1.50;;
59974;SDS011;62136;-35.664;-63.766;2023-04-15T06:51:11;2.25;;;1.23;;
59974;SDS011;62136;-35.664;-63.766;2023-04-15T06:53:38;1.77;;;1.02;;
59974;SDS011;62136;-35.664;-63.766;2023-04-15T06:56:08;2.00;;;1.30;;
59974;SDS011;62136;-35.664;-63.766;2023-04-15T06:58:35;2.63;;;1.13;;
59974;SDS011;62136;-35.664;-63.766;2023-04-15T07:01:02;3.65;;;1.45;;
59974;SDS011;62136;-35.664;-63.766;2023-04-15T07:03:29;2.08;;;0.95;;
59974;SDS011;62136;-35.664;-63.766;2023-04-15T07:05:57;2.13;;;1.30;;
59974;SDS011;62136;-35.664;-63.766;2023-04-15T07:08:24;3.95;;;1.08;;
59974;SDS011;62136;-35.664;-63.766;2023-04-15T07:10:51;2.25;;;1.20;;
59974;SDS011;62136;-35.664;-63.766;2023-04-15T07:13:18;3.28;;;1.40;;
59974;SDS011;62136;-35.664;-63.766;2023-04-15T07:15:45;4.38;;;1.67;;
59974;SDS011;62136;-35.664;-63.766;2023-04-15T07:18:12;3.00;;;0.90;;
59974;SDS011;62136;-35.664;-63.766;2023-04-15T07:20:39;1.73;;;1.30;;
59974;SDS011;62136;-35.664;-63.766;2023-04-15T07:23:06;1.15;;;0.90;;
59974;SDS011;62136;-35.664;-63.766;2023-04-15T07:25:33;1.92;;;1.10;;
59974;SDS011;62136;-35.664;-63.766;2023-04-15T07:28:01;3.85;;;1.30;;
59974;SDS011;62136;-35.664;-63.766;2023-04-15T07:30:28;3.38;;;1.05;;
59974;SDS011;62136;-35.664;-63.766;2023-04-15T07:32:55;1.75;;;0.90;;
59974;SDS011;62136;-35.664;-63.766;2023-04-15T07:35:23;3.28;;;1.10;;
59974;SDS011;62136;-35.664;-63.766;2023-04-15T07:37:51;3.53;;;1.00;;
59974;SDS011;62136;-35.664;-63.766;2023-04-15T07:40:18;1.63;;;1.13;;
59974;SDS011;62136;-35.664;-63.766;2023-04-15T07:42:45;2.97;;;1.20;;
59974;SDS011;62136;-35.664;-63.766;2023-04-15T07:45:13;2.20;;;1.10;;
59974;SDS011;62136;-35.664;-63.766;2023-04-15T07:47:41;1.80;;;0.80;;
59974;SDS011;62136;-35.664;-63.766;2023-04-15T07:50:08;1.45;;;0.93;;
59974;SDS011;62136;-35.664;-63.766;2023-04-15T07:52:35;2.50;;;1.08;;
59974;SDS011;62136;-35.664;-63.766;2023-04-15T07:55:05;2.50;;;1.00;;
59974;SDS011;62136;-35.664;-63.766;2023-04-15T07:57:36;2.08;;;1.13;;
59974;SDS011;62136;-35.664;-63.766;2023-04-15T08:00:03;2.40;;;1.00;;
59974;SDS011;62136;-35.664;-63.766;2023-04-15T08:02:32;1.70;;;1.10;;
59974;SDS011;62136;-35.664;-63.766;2023-04-15T08:04:59;3.90;;;1.60;;
59974;SDS011;62136;-35.664;-63.766;2023-04-15T08:07:28;2.10;;;1.25;;
59974;SDS011;62136;-35.664;-63.766;2023-04-15T08:09:56;2.03;;;1.20;;
59974;SDS011;62136;-35.664;-63.766;2023-04-15T08:12:23;2.25;;;1.17;;
59974;SDS011;62136;-35.664;-63.766;2023-04-15T08:14:50;3.35;;;1.27;;
59974;SDS011;62136;-35.664;-63.766;2023-04-15T08:17:17;2.33;;;0.80;;
59974;SDS011;62136;-35.664;-63.766;2023-04-15T08:19:44;1.92;;;0.98;;
59974;SDS011;62136;-35.664;-63.766;2023-04-15T08:22:12;1.88;;;1.00;;
59974;SDS011;62136;-35.664;-63.766;2023-04-15T08:24:40;1.90;;;1.33;;
59974;SDS011;62136;-35.664;-63.766;2023-04-15T08:27:07;3.60;;;1.10;;
59974;SDS011;62136;-35.664;-63.766;2023-04-15T08:29:34;2.33;;;1.13;;
59974;SDS011;62136;-35.664;-63.766;2023-04-15T08:32:04;1.98;;;0.90;;
59974;SDS011;62136;-35.664;-63.766;2023-04-15T08:34:32;1.73;;;0.80;;
59974;SDS011;62136;-35.664;-63.766;2023-04-15T08:37:00;2.08;;;1.15;;
59974;SDS011;62136;-35.664;-63.766;2023-04-15T08:39:27;1.52;;;0.68;;
59974;SDS011;62136;-35.664;-63.766;2023-04-15T08:42:03;4.10;;;1.40;;
59974;SDS011;62136;-35.664;-63.766;2023-04-15T08:44:41;1.85;;;0.85;;
59974;SDS011;62136;-35.664;-63.766;2023-04-15T08:47:12;1.60;;;0.98;;
59974;SDS011;62136;-35.664;-63.766;2023-04-15T08:49:39;1.88;;;0.90;;
59974;SDS011;62136;-35.664;-63.766;2023-04-15T08:52:08;1.17;;;0.80;;
59974;SDS011;62136;-35.664;-63.766;2023-04-15T08:54:35;3.45;;;0.95;;
59974;SDS011;62136;-35.664;-63.766;2023-04-15T08:57:03;1.92;;;0.95;;
59974;SDS011;62136;-35.664;-63.766;2023-04-15T08:59:30;3.67;;;1.30;;
59974;SDS011;62136;-35.664;-63.766;2023-04-15T09:01:58;3.38;;;1.23;;
59974;SDS011;62136;-35.664;-63.766;2023-04-15T09:04:26;1.85;;;0.88;;
59974;SDS011;62136;-35.664;-63.766;2023-04-15T09:06:55;1.10;;;0.70;;
59974;SDS011;62136;-35.664;-63.766;2023-04-15T09:09:22;3.50;;;0.98;;
59974;SDS011;62136;-35.664;-63.766;2023-04-15T09:11:49;2.70;;;1.00;;
59974;SDS011;62136;-35.664;-63.766;2023-04-15T09:14:16;2.38;;;1.00;;
59974;SDS011;62136;-35.664;-63.766;2023-04-15T09:17:00;1.80;;;0.90;;
59974;SDS011;62136;-35.664;-63.766;2023-04-15T09:19:28;4.22;;;1.10;;
59974;SDS011;62136;-35.664;-63.766;2023-04-15T09:21:58;1.80;;;0.90;;
59974;SDS011;62136;-35.664;-63.766;2023-04-15T09:24:32;1.75;;;0.98;;
59974;SDS011;62136;-35.664;-63.766;2023-04-15T09:27:05;1.40;;;0.80;;
59974;SDS011;62136;-35.664;-63.766;2023-04-15T09:29:32;2.83;;;1.08;;
59974;SDS011;62136;-35.664;-63.766;2023-04-15T09:32:12;1.98;;;0.82;;
59974;SDS011;62136;-35.664;-63.766;2023-04-15T09:34:40;3.03;;;0.90;;
59974;SDS011;62136;-35.664;-63.766;2023-04-15T09:37:07;3.38;;;1.20;;
59974;SDS011;62136;-35.664;-63.766;2023-04-15T09:39:45;2.10;;;0.93;;
59974;SDS011;62136;-35.664;-63.766;2023-04-15T09:42:14;1.77;;;0.70;;
59974;SDS011;62136;-35.664;-63.766;2023-04-15T09:44:51;0.80;;;0.80;;
59974;SDS011;62136;-35.664;-63.766;2023-04-15T09:47:28;1.20;;;1.10;;
59974;SDS011;62136;-35.664;-63.766;2023-04-15T09:49:59;2.33;;;0.90;;
59974;SDS011;62136;-35.664;-63.766;2023-04-15T09:52:27;1.30;;;0.88;;
59974;SDS011;62136;-35.664;-63.766;2023-04-15T09:54:55;2.13;;;0.85;;
59974;SDS011;62136;-35.664;-63.766;2023-04-15T09:57:24;2.05;;;0.95;;
59974;SDS011;62136;-35.664;-63.766;2023-04-15T09:59:58;2.70;;;1.08;;
59974;SDS011;62136;-35.664;-63.766;2023-04-15T10:02:25;1.38;;;0.73;;
59974;SDS011;62136;-35.664;-63.766;2023-04-15T10:04:53;1.23;;;0.80;;
59974;SDS011;62136;-35.664;-63.766;2023-04-15T10:07:21;1.15;;;0.90;;
59974;SDS011;62136;-35.664;-63.766;2023-04-15T10:09:48;1.98;;;0.80;;
59974;SDS011;62136;-35.664;-63.766;2023-04-15T10:12:18;4.03;;;1.35;;
59974;SDS011;62136;-35.664;-63.766;2023-04-15T10:14:47;2.00;;;1.08;;
59974;SDS011;62136;-35.664;-63.766;2023-04-15T10:19:48;1.92;;;1.25;;
59974;SDS011;62136;-35.664;-63.766;2023-04-15T10:22:18;1.15;;;0.80;;
59974;SDS011;62136;-35.664;-63.766;2023-04-15T10:24:45;1.08;;;0.75;;
59974;SDS011;62136;-35.664;-63.766;2023-04-15T10:27:13;1.58;;;1.17;;
59974;SDS011;62136;-35.664;-63.766;2023-04-15T10:29:42;1.52;;;0.90;;
59974;SDS011;62136;-35.664;-63.766;2023-04-15T10:32:09;2.03;;;0.80;;
59974;SDS011;62136;-35.664;-63.766;2023-04-15T10:34:37;2.80;;;0.90;;
59974;SDS011;62136;-35.664;-63.766;2023-04-15T10:37:07;1.33;;;1.10;;
59974;SDS011;62136;-35.664;-63.766;2023-04-15T10:39:38;2.85;;;0.95;;
59974;SDS011;62136;-35.664;-63.766;2023-04-15T10:44:38;2.88;;;0.82;;
59974;SDS011;62136;-35.664;-63.766;2023-04-15T10:47:14;1.65;;;0.85;;
59974;SDS011;62136;-35.664;-63.766;2023-04-15T10:49:55;2.35;;;0.80;;
59974;SDS011;62136;-35.664;-63.766;2023-04-15T10:52:25;2.05;;;0.75;;
59974;SDS011;62136;-35.664;-63.766;2023-04-15T10:55:10;1.25;;;0.80;;
59974;SDS011;62136;-35.664;-63.766;2023-04-15T10:57:43;2.83;;;1.00;;
59974;SDS011;62136;-35.664;-63.766;2023-04-15T11:02:42;2.72;;;1.20;;
59974;SDS011;62136;-35.664;-63.766;2023-04-15T11:05:17;1.17;;;0.90;;
59974;SDS011;62136;-35.664;-63.766;2023-04-15T11:12:43;0.82;;;0.80;;
59974;SDS011;62136;-35.664;-63.766;2023-04-15T11:15:27;1.75;;;0.90;;
59974;SDS011;62136;-35.664;-63.766;2023-04-15T11:17:55;2.57;;;1.00;;
59974;SDS011;62136;-35.664;-63.766;2023-04-15T11:20:34;2.45;;;0.70;;
59974;SDS011;62136;-35.664;-63.766;2023-04-15T11:23:02;3.22;;;0.98;;
59974;SDS011;62136;-35.664;-63.766;2023-04-15T11:25:31;1.30;;;0.80;;
59974;SDS011;62136;-35.664;-63.766;2023-04-15T11:27:59;1.83;;;0.90;;
59974;SDS011;62136;-35.664;-63.766;2023-04-15T11:30:28;2.13;;;0.98;;
59974;SDS011;62136;-35.664;-63.766;2023-04-15T11:32:58;1.77;;;1.10;;
59974;SDS011;62136;-35.664;-63.766;2023-04-15T11:35:26;2.10;;;0.80;;
59974;SDS011;62136;-35.664;-63.766;2023-04-15T11:37:53;2.60;;;0.90;;
59974;SDS011;62136;-35.664;-63.766;2023-04-15T11:40:24;2.70;;;0.90;;
59974;SDS011;62136;-35.664;-63.766;2023-04-15T11:43:07;1.55;;;0.90;;
59974;SDS011;62136;-35.664;-63.766;2023-04-15T11:45:59;1.58;;;0.88;;
59974;SDS011;62136;-35.664;-63.766;2023-04-15T11:48:26;1.45;;;1.00;;
59974;SDS011;62136;-35.664;-63.766;2023-04-15T11:53:48;1.50;;;0.82;;
59974;SDS011;62136;-35.664;-63.766;2023-04-15T11:58:45;2.63;;;0.77;;
59974;SDS011;62136;-35.664;-63.766;2023-04-15T12:01:15;1.33;;;1.20;;
59974;SDS011;62136;-35.664;-63.766;2023-04-15T12:03:43;1.92;;;1.13;;
59974;SDS011;62136;-35.664;-63.766;2023-04-15T12:08:55;1.58;;;0.90;;
59974;SDS011;62136;-35.664;-63.766;2023-04-15T12:11:32;2.40;;;0.80;;
59974;SDS011;62136;-35.664;-63.766;2023-04-15T12:17:00;1.13;;;0.93;;
59974;SDS011;62136;-35.664;-63.766;2023-04-15T12:24:32;1.95;;;1.02;;
59974;SDS011;62136;-35.664;-63.766;2023-04-15T12:27:01;1.92;;;1.00;;
59974;SDS011;62136;-35.664;-63.766;2023-04-15T12:29:28;1.98;;;1.00;;
59974;SDS011;62136;-35.664;-63.766;2023-04-15T12:31:58;1.85;;;1.00;;
59974;SDS011;62136;-35.664;-63.766;2023-04-15T12:34:36;2.05;;;0.90;;
59974;SDS011;62136;-35.664;-63.766;2023-04-15T12:37:05;1.30;;;0.73;;
59974;SDS011;62136;-35.664;-63.766;2023-04-15T12:39:34;1.13;;;0.88;;
59974;SDS011;62136;-35.664;-63.766;2023-04-15T12:42:06;1.25;;;0.88;;
59974;SDS011;62136;-35.664;-63.766;2023-04-15T12:44:34;1.77;;;0.80;;
59974;SDS011;62136;-35.664;-63.766;2023-04-15T12:47:02;2.55;;;1.15;;
59974;SDS011;62136;-35.664;-63.766;2023-04-15T12:49:30;1.13;;;0.77;;
59974;SDS011;62136;-35.664;-63.766;2023-04-15T12:51:58;2.90;;;1.00;;
59974;SDS011;62136;-35.664;-63.766;2023-04-15T12:54:26;2.53;;;1.00;;
59974;SDS011;62136;-35.664;-63.766;2023-04-15T12:56:54;2.65;;;0.88;;
59974;SDS011;62136;-35.664;-63.766;2023-04-15T12:59:24;0.98;;;0.80;;
59974;SDS011;62136;-35.664;-63.766;2023-04-15T13:01:52;2.45;;;1.10;;
59974;SDS011;62136;-35.664;-63.766;2023-04-15T13:04:19;1.95;;;1.05;;
59974;SDS011;62136;-35.664;-63.766;2023-04-15T13:06:47;2.67;;;0.90;;
59974;SDS011;62136;-35.664;-63.766;2023-04-15T13:09:14;1.30;;;0.90;;
59974;SDS011;62136;-35.664;-63.766;2023-04-15T13:11:41;1.42;;;0.88;;
59974;SDS011;62136;-35.664;-63.766;2023-04-15T13:14:08;2.60;;;1.20;;
59974;SDS011;62136;-35.664;-63.766;2023-04-15T13:16:38;2.42;;;0.95;;
59974;SDS011;62136;-35.664;-63.766;2023-04-15T13:19:05;1.70;;;1.20;;
59974;SDS011;62136;-35.664;-63.766;2023-04-15T13:21:32;1.40;;;0.77;;
59974;SDS011;62136;-35.664;-63.766;2023-04-15T13:24:00;2.20;;;0.90;;
59974;SDS011;62136;-35.664;-63.766;2023-04-15T13:26:31;2.20;;;0.95;;
59974;SDS011;62136;-35.664;-63.766;2023-04-15T13:28:58;1.15;;;0.90;;
59974;SDS011;62136;-35.664;-63.766;2023-04-15T13:31:25;1.83;;;1.02;;
59974;SDS011;62136;-35.664;-63.766;2023-04-15T13:33:52;2.00;;;0.85;;
59974;SDS011;62136;-35.664;-63.766;2023-04-15T13:36:19;1.23;;;0.80;;
59974;SDS011;62136;-35.664;-63.766;2023-04-15T13:38:46;1.77;;;0.88;;
59974;SDS011;62136;-35.664;-63.766;2023-04-15T13:41:13;1.92;;;0.90;;
59974;SDS011;62136;-35.664;-63.766;2023-04-15T13:43:40;1.63;;;0.93;;
59974;SDS011;62136;-35.664;-63.766;2023-04-15T13:46:07;1.67;;;0.90;;
59974;SDS011;62136;-35.664;-63.766;2023-04-15T13:48:34;0.93;;;0.80;;
59974;SDS011;62136;-35.664;-63.766;2023-04-15T13:51:01;1.77;;;0.93;;
59974;SDS011;62136;-35.664;-63.766;2023-04-15T13:53:28;1.83;;;0.82;;
59974;SDS011;62136;-35.664;-63.766;2023-04-15T13:55:55;1.50;;;0.93;;
59974;SDS011;62136;-35.664;-63.766;2023-04-15T13:58:22;2.13;;;1.05;;
59974;SDS011;62136;-35.664;-63.766;2023-04-15T14:00:50;1.55;;;0.77;;
59974;SDS011;62136;-35.664;-63.766;2023-04-15T14:03:17;2.78;;;1.00;;
59974;SDS011;62136;-35.664;-63.766;2023-04-15T14:05:44;2.17;;;0.93;;
59974;SDS011;62136;-35.664;-63.766;2023-04-15T14:08:11;1.65;;;0.82;;
59974;SDS011;62136;-35.664;-63.766;2023-04-15T14:10:38;2.47;;;1.27;;
59974;SDS011;62136;-35.664;-63.766;2023-04-15T14:13:06;1.30;;;0.80;;
59974;SDS011;62136;-35.664;-63.766;2023-04-15T14:15:33;2.42;;;0.80;;
59974;SDS011;62136;-35.664;-63.766;2023-04-15T14:18:00;1.52;;;0.85;;
59974;SDS011;62136;-35.664;-63.766;2023-04-15T14:20:27;2.42;;;1.00;;
59974;SDS011;62136;-35.664;-63.766;2023-04-15T14:22:54;1.60;;;1.00;;
59974;SDS011;62136;-35.664;-63.766;2023-04-15T14:25:21;2.15;;;0.95;;
59974;SDS011;62136;-35.664;-63.766;2023-04-15T14:27:48;1.92;;;0.80;;
59974;SDS011;62136;-35.664;-63.766;2023-04-15T14:30:15;1.98;;;1.00;;
59974;SDS011;62136;-35.664;-63.766;2023-04-15T14:32:42;1.38;;;0.80;;
59974;SDS011;62136;-35.664;-63.766;2023-04-15T14:35:09;1.25;;;0.93;;
59974;SDS011;62136;-35.664;-63.766;2023-04-15T14:37:36;2.25;;;0.82;;
59974;SDS011;62136;-35.664;-63.766;2023-04-15T14:40:03;2.45;;;0.75;;
59974;SDS011;62136;-35.664;-63.766;2023-04-15T14:42:31;1.60;;;0.82;;